Time;durP1;ratioP1;P1;durP2;ratioP2;P2;SDS_P1;SDS_P2;PMS_P1;PMS_P2;Temp;Humidity;BMP_temperature;BMP_pressure;BME280_temperature;BME280_humidity;BME280_pressure;Samples;Min_cycle;Max_cycle;Signal;HPM_P1;HPM_P2
2022/11/11 00:01:11;;;;;;;0.40;0.40;;;5.60;99.90;;;;;;5035811;28;20171;-70
2022/11/11 00:03:36;;;;;;;0.38;0.38;;;5.60;99.90;;;;;;5035923;28;20167;-67
2022/11/11 00:06:04;;;;;;;0.30;0.30;;;5.50;99.90;;;;;;5036005;28;20175;-68
2022/11/11 00:08:30;;;;;;;0.30;0.30;;;5.50;99.90;;;;;;5035776;28;20266;-70
2022/11/11 00:11:04;;;;;;;0.30;0.30;;;5.40;99.90;;;;;;5035427;28;20179;-70
2022/11/11 00:13:31;;;;;;;0.30;0.30;;;5.40;99.90;;;;;;5035375;28;20170;-67
2022/11/11 00:16:06;;;;;;;0.40;0.40;;;5.50;99.90;;;;;;5035608;28;20175;-69
2022/11/11 00:27:08;;;;;;;0.40;0.40;;;5.60;99.90;;;;;;5035353;28;20225;-67
2022/11/11 00:29:33;;;;;;;0.40;0.40;;;5.60;99.90;;;;;;5035188;28;20194;-69
2022/11/11 00:35:51;;;;;;;0.40;0.40;;;5.60;99.90;;;;;;5035359;28;20266;-67
2022/11/11 00:37:29;;;;;;;0.30;0.30;;;5.50;99.90;;;;;;5034757;28;20233;-67
2022/11/11 00:39:54;;;;;;;0.30;0.30;;;5.50;99.90;;;;;;5035116;28;20206;-69
2022/11/11 00:42:20;;;;;;;0.30;0.30;;;5.40;99.90;;;;;;5034314;28;20705;-70
2022/11/11 00:44:46;;;;;;;0.30;0.30;;;5.40;99.90;;;;;;5034768;28;20532;-68
2022/11/11 00:52:40;;;;;;;0.40;0.40;;;5.50;99.90;;;;;;5034759;28;20264;-70
2022/11/11 00:55:06;;;;;;;0.30;0.30;;;5.40;99.90;;;;;;5034896;28;20171;-68
2022/11/11 00:57:32;;;;;;;0.50;0.50;;;5.40;99.90;;;;;;5035502;28;20259;-70
2022/11/11 00:59:57;;;;;;;0.60;0.60;;;5.50;99.90;;;;;;5017024;28;20647;-68
2022/11/11 01:02:23;;;;;;;0.30;0.30;;;5.50;99.90;;;;;;5034615;28;20173;-69
2022/11/11 01:04:48;;;;;;;0.40;0.40;;;5.60;99.90;;;;;;5034891;28;20171;-68
2022/11/11 01:07:14;;;;;;;0.30;0.30;;;5.70;99.90;;;;;;5035091;28;20547;-68
2022/11/11 01:09:39;;;;;;;0.30;0.30;;;5.70;99.90;;;;;;5034557;28;20195;-68
2022/11/11 01:12:05;;;;;;;0.30;0.30;;;5.70;99.90;;;;;;5034508;28;20167;-68
2022/11/11 01:14:31;;;;;;;0.40;0.40;;;5.70;99.90;;;;;;5034192;28;20171;-69
2022/11/11 01:16:56;;;;;;;0.40;0.40;;;5.80;99.90;;;;;;5017011;28;20171;-68
2022/11/11 01:19:22;;;;;;;0.40;0.40;;;5.90;99.90;;;;;;5034669;28;20732;-69
2022/11/11 01:21:48;;;;;;;0.30;0.30;;;5.70;99.90;;;;;;5034092;28;20171;-68
2022/11/11 01:24:13;;;;;;;0.40;0.40;;;5.60;99.90;;;;;;5034013;28;20174;-68
2022/11/11 01:26:39;;;;;;;0.30;0.30;;;5.70;99.90;;;;;;5034273;28;20169;-67
2022/11/11 01:29:05;;;;;;;0.30;0.30;;;5.70;99.90;;;;;;5034223;28;20205;-70
2022/11/11 01:31:30;;;;;;;0.30;0.30;;;5.70;99.90;;;;;;5034490;28;20445;-69
2022/11/11 01:33:56;;;;;;;0.37;0.37;;;5.60;99.90;;;;;;5033870;28;20190;-68
2022/11/11 01:36:24;;;;;;;0.40;0.40;;;5.70;99.90;;;;;;5034568;28;20196;-70
2022/11/11 01:38:53;;;;;;;0.40;0.40;;;5.80;99.90;;;;;;5033922;28;20206;-69
2022/11/11 01:41:31;;;;;;;0.30;0.30;;;5.80;99.90;;;;;;5034138;28;20578;-70
2022/11/11 01:44:09;;;;;;;0.30;0.30;;;5.90;99.90;;;;;;5034006;28;20197;-70
2022/11/11 01:46:42;;;;;;;0.40;0.40;;;5.90;99.90;;;;;;5034360;28;20166;-68
2022/11/11 01:49:20;;;;;;;0.30;0.30;;;6.00;99.90;;;;;;5034135;28;20195;-68
2022/11/11 01:51:45;;;;;;;0.30;0.30;;;6.10;99.90;;;;;;5033942;28;20493;-67
2022/11/11 01:54:16;;;;;;;0.33;0.33;;;6.10;99.90;;;;;;5033022;28;20258;-67
2022/11/11 01:56:44;;;;;;;0.50;0.50;;;6.00;99.90;;;;;;5034036;28;20181;-69
2022/11/11 01:59:13;;;;;;;1.42;1.33;;;5.90;99.90;;;;;;5034117;28;20202;-68
2022/11/11 02:01:40;;;;;;;0.30;0.30;;;5.90;99.90;;;;;;5034278;28;20167;-69
2022/11/11 02:06:54;;;;;;;0.50;0.50;;;6.00;99.90;;;;;;5033970;28;20209;-68
2022/11/11 02:09:23;;;;;;;0.40;0.40;;;6.00;99.90;;;;;;5033846;28;20198;-67
2022/11/11 02:14:41;;;;;;;0.30;0.30;;;6.20;99.90;;;;;;5033815;28;20221;-67
2022/11/11 02:17:09;;;;;;;0.60;0.60;;;6.20;99.90;;;;;;5033791;28;20589;-69
2022/11/11 02:19:52;;;;;;;0.40;0.40;;;6.20;99.90;;;;;;5033382;28;20229;-70
2022/11/11 02:22:49;;;;;;;0.40;0.40;;;6.20;99.90;;;;;;5034048;28;20229;-67
2022/11/11 02:25:19;;;;;;;0.32;0.32;;;6.10;99.90;;;;;;5033792;28;20225;-68
2022/11/11 02:27:49;;;;;;;0.30;0.30;;;6.10;99.90;;;;;;5033707;28;20168;-70
2022/11/11 02:30:16;;;;;;;0.30;0.30;;;6.20;99.90;;;;;;5033230;28;20191;-68
2022/11/11 02:32:44;;;;;;;1.17;1.00;;;6.30;99.90;;;;;;5033696;28;20178;-68
2022/11/11 02:35:21;;;;;;;0.30;0.30;;;6.30;99.90;;;;;;5033467;28;20201;-69
2022/11/11 02:37:52;;;;;;;0.30;0.30;;;6.40;99.90;;;;;;5033437;28;20178;-68
2022/11/11 02:40:26;;;;;;;0.40;0.40;;;6.40;99.90;;;;;;5033542;28;20529;-68
2022/11/11 02:42:52;;;;;;;0.40;0.40;;;6.40;99.90;;;;;;5033641;28;20171;-68
2022/11/11 02:45:17;;;;;;;0.30;0.30;;;6.40;99.90;;;;;;5033787;28;20186;-68
2022/11/11 02:47:43;;;;;;;0.40;0.40;;;6.30;99.90;;;;;;5033241;28;20404;-69
2022/11/11 02:50:09;;;;;;;0.40;0.40;;;6.20;99.90;;;;;;5033336;28;20557;-69
2022/11/11 02:52:35;;;;;;;0.30;0.30;;;6.20;99.90;;;;;;5033410;28;20232;-68
2022/11/11 02:55:01;;;;;;;0.30;0.30;;;6.20;99.90;;;;;;5033390;28;20175;-69
2022/11/11 02:57:27;;;;;;;0.40;0.40;;;6.20;99.90;;;;;;5033466;28;20169;-67
2022/11/11 02:59:53;;;;;;;0.32;0.32;;;6.30;99.90;;;;;;5032949;28;20260;-69
2022/11/11 03:02:19;;;;;;;0.30;0.30;;;6.30;99.90;;;;;;5033125;28;20163;-68
2022/11/11 03:04:44;;;;;;;0.30;0.30;;;6.40;99.90;;;;;;5034675;28;20564;-68
2022/11/11 03:07:10;;;;;;;0.40;0.40;;;6.40;99.90;;;;;;5037101;28;20170;-68
2022/11/11 03:09:36;;;;;;;0.30;0.30;;;6.30;99.90;;;;;;5036735;28;20248;-70
2022/11/11 03:12:01;;;;;;;0.40;0.40;;;6.30;99.90;;;;;;5037267;28;20178;-67
2022/11/11 03:14:27;;;;;;;0.30;0.30;;;6.30;99.90;;;;;;5036416;28;20175;-70
2022/11/11 03:19:37;;;;;;;0.30;0.30;;;6.20;99.90;;;;;;5036788;28;20984;-69
2022/11/11 03:22:03;;;;;;;0.30;0.30;;;6.20;99.90;;;;;;5036929;28;20179;-69
2022/11/11 03:27:14;;;;;;;0.40;0.40;;;6.30;99.90;;;;;;5036944;28;20254;-70
2022/11/11 03:29:39;;;;;;;1.13;1.13;;;6.30;99.90;;;;;;5036448;28;20688;-70
2022/11/11 03:32:06;;;;;;;0.40;0.40;;;6.30;99.90;;;;;;5036569;28;20241;-70
2022/11/11 03:34:32;;;;;;;0.30;0.30;;;6.30;99.90;;;;;;5036480;28;20672;-70
2022/11/11 03:39:42;;;;;;;0.30;0.30;;;6.40;99.90;;;;;;5036043;28;20256;-67
2022/11/11 03:42:07;;;;;;;0.30;0.30;;;6.50;99.90;;;;;;5036239;28;20203;-67
2022/11/11 03:44:33;;;;;;;0.40;0.40;;;6.50;99.90;;;;;;5036249;28;20582;-68
2022/11/11 03:46:58;;;;;;;0.30;0.30;;;6.50;99.90;;;;;;5036406;28;20203;-68
2022/11/11 03:49:24;;;;;;;0.30;0.30;;;6.50;99.90;;;;;;5035937;28;20260;-68
2022/11/11 03:51:50;;;;;;;0.40;0.40;;;6.50;99.90;;;;;;5036337;28;20178;-69
2022/11/11 03:54:15;;;;;;;0.60;0.60;;;6.40;99.90;;;;;;5035741;28;20173;-69
2022/11/11 03:56:41;;;;;;;0.30;0.30;;;6.40;99.90;;;;;;5036164;28;20648;-68
2022/11/11 03:59:07;;;;;;;0.70;0.70;;;6.50;99.90;;;;;;5037958;28;20561;-69
2022/11/11 04:16:04;;;;;;;0.40;0.40;;;6.50;99.90;;;;;;5036088;28;20723;-67
2022/11/11 04:18:01;;;;;;;0.60;0.60;;;6.40;99.90;;;;;;5035600;28;20229;-70
2022/11/11 04:23:11;;;;;;;0.40;0.40;;;6.40;99.90;;;;;;5035732;28;20178;-69
2022/11/11 04:25:49;;;;;;;0.40;0.40;;;6.40;99.90;;;;;;5035203;28;20167;-69
2022/11/11 04:30:59;;;;;;;0.35;0.35;;;6.40;99.90;;;;;;5035860;28;20256;-69
2022/11/11 04:33:25;;;;;;;0.30;0.30;;;6.30;99.90;;;;;;5035246;28;20202;-68
2022/11/11 04:35:51;;;;;;;0.50;0.50;;;6.30;99.90;;;;;;5035540;28;20905;-69
2022/11/11 04:41:03;;;;;;;0.30;0.30;;;6.20;99.90;;;;;;5035762;28;20174;-69
2022/11/11 04:43:30;;;;;;;0.40;0.40;;;6.10;99.90;;;;;;5034822;28;20607;-68
2022/11/11 04:45:59;;;;;;;0.30;0.30;;;6.10;99.90;;;;;;5035509;28;20172;-69
2022/11/11 04:48:25;;;;;;;0.40;0.40;;;6.20;99.90;;;;;;5034699;28;20219;-69
2022/11/11 04:50:51;;;;;;;0.30;0.30;;;6.30;99.90;;;;;;5034938;28;20175;-67
2022/11/11 04:53:17;;;;;;;0.30;0.30;;;6.30;99.90;;;;;;5034676;28;20171;-70
2022/11/11 04:58:33;;;;;;;0.40;0.40;;;6.20;99.90;;;;;;5035263;28;20197;-68
2022/11/11 05:00:59;;;;;;;0.30;0.30;;;6.20;99.90;;;;;;5034644;28;20178;-67
2022/11/11 05:03:25;;;;;;;0.30;0.30;;;6.20;99.90;;;;;;5034941;28;20167;-67
2022/11/11 05:09:00;;;;;;;0.30;0.30;;;6.40;99.90;;;;;;5035141;28;20201;-68
2022/11/11 05:11:31;;;;;;;0.40;0.40;;;6.40;99.90;;;;;;5034682;28;20249;-68
2022/11/11 05:22:36;;;;;;;1.77;1.27;;;6.50;99.90;;;;;;5034478;28;20691;-69
2022/11/11 05:27:46;;;;;;;0.40;0.40;;;6.70;99.90;;;;;;5034759;28;20691;-74
2022/11/11 05:30:15;;;;;;;0.30;0.30;;;7.80;99.90;;;;;;5033921;28;20212;-72
2022/11/11 05:32:41;;;;;;;0.38;0.38;;;8.90;99.90;;;;;;5034090;28;20182;-71
2022/11/11 05:35:08;;;;;;;0.30;0.30;;;9.80;99.90;;;;;;5034313;28;20528;-69
2022/11/11 05:37:34;;;;;;;0.40;0.40;;;10.50;99.90;;;;;;5034273;28;20581;-66
2022/11/11 05:39:59;;;;;;;0.30;0.30;;;10.50;99.90;;;;;;5015767;28;20206;-68
2022/11/11 05:42:25;;;;;;;0.30;0.30;;;10.20;99.90;;;;;;5034482;28;20308;-70
2022/11/11 05:44:51;;;;;;;0.40;0.40;;;9.70;99.90;;;;;;5033818;28;20174;-69
2022/11/11 05:47:16;;;;;;;0.30;0.30;;;9.10;99.70;;;;;;5034122;28;20163;-68
2022/11/11 05:49:42;;;;;;;0.40;0.40;;;8.50;99.40;;;;;;5034101;28;20255;-67
2022/11/11 05:52:10;;;;;;;0.30;0.30;;;8.00;99.70;;;;;;5034231;28;20170;-70
2022/11/11 05:54:35;;;;;;;0.50;0.50;;;7.80;99.90;;;;;;5033709;28;20575;-70
2022/11/11 05:57:02;;;;;;;0.40;0.40;;;7.60;99.90;;;;;;5033841;28;20230;-68
2022/11/11 05:59:28;;;;;;;0.40;0.40;;;7.40;99.90;;;;;;5033755;28;20715;-68
2022/11/11 06:01:53;;;;;;;0.40;0.40;;;7.20;99.90;;;;;;5033791;28;20273;-68
2022/11/11 06:04:19;;;;;;;0.40;0.40;;;7.00;99.90;;;;;;5033891;28;20430;-69
2022/11/11 06:06:45;;;;;;;0.33;0.33;;;7.00;99.90;;;;;;5033533;28;20195;-68
2022/11/11 06:09:10;;;;;;;0.40;0.40;;;6.90;99.90;;;;;;5033617;28;20219;-70
2022/11/11 06:11:36;;;;;;;0.40;0.40;;;6.80;99.90;;;;;;5034237;28;20180;-69
2022/11/11 06:14:02;;;;;;;0.40;0.40;;;6.80;99.90;;;;;;5033451;28;20590;-69
2022/11/11 06:16:28;;;;;;;0.32;0.32;;;6.80;99.90;;;;;;5033643;28;20211;-68
2022/11/11 06:18:53;;;;;;;0.30;0.30;;;6.80;99.90;;;;;;5033262;28;20210;-70
2022/11/11 06:21:19;;;;;;;0.30;0.30;;;6.90;99.90;;;;;;5033842;28;20250;-68
2022/11/11 06:23:44;;;;;;;0.30;0.30;;;6.80;99.90;;;;;;5033425;28;20164;-70
2022/11/11 06:26:13;;;;;;;0.30;0.30;;;6.80;99.90;;;;;;5033623;28;20163;-69
2022/11/11 06:28:47;;;;;;;0.30;0.30;;;6.70;99.90;;;;;;5033292;28;20214;-70
2022/11/11 06:31:24;;;;;;;0.30;0.30;;;6.60;99.90;;;;;;5033662;28;20618;-70
2022/11/11 06:33:50;;;;;;;0.30;0.30;;;6.50;99.90;;;;;;5033327;28;20566;-67
2022/11/11 06:36:18;;;;;;;1.47;1.47;;;6.50;99.90;;;;;;5033869;28;20247;-67
2022/11/11 06:38:44;;;;;;;0.45;0.45;;;6.60;99.90;;;;;;5032947;28;20876;-70
2022/11/11 06:41:14;;;;;;;0.30;0.30;;;6.60;99.90;;;;;;5037216;28;20176;-69
2022/11/11 06:43:40;;;;;;;0.30;0.30;;;6.70;99.90;;;;;;5037498;28;20167;-68
2022/11/11 06:46:06;;;;;;;0.55;0.55;;;6.60;99.90;;;;;;5037526;28;20602;-67
2022/11/11 06:48:32;;;;;;;0.30;0.30;;;6.60;99.90;;;;;;5037601;28;20601;-70
2022/11/11 06:51:03;;;;;;;0.40;0.40;;;6.60;99.90;;;;;;5019981;28;20172;-69
2022/11/11 06:53:29;;;;;;;0.40;0.40;;;6.60;99.90;;;;;;5037142;28;20198;-69
2022/11/11 06:55:56;;;;;;;0.77;0.63;;;6.50;99.90;;;;;;5037114;28;20167;-68
2022/11/11 06:58:22;;;;;;;2.28;0.88;;;6.80;99.90;;;;;;5019390;28;20973;-68
2022/11/11 07:00:49;;;;;;;0.40;0.40;;;6.70;99.90;;;;;;5037263;28;20293;-67
2022/11/11 07:03:16;;;;;;;0.40;0.40;;;6.80;99.90;;;;;;5037027;28;20164;-70
2022/11/11 07:05:43;;;;;;;0.63;0.63;;;6.90;99.90;;;;;;5037411;28;20182;-67
2022/11/11 07:08:11;;;;;;;1.48;1.45;;;7.00;99.90;;;;;;5036721;28;20199;-70
2022/11/11 07:10:40;;;;;;;0.40;0.40;;;7.00;99.90;;;;;;5036941;28;20224;-69
2022/11/11 07:13:06;;;;;;;0.80;0.80;;;7.10;99.90;;;;;;5036674;28;20247;-69
2022/11/11 07:15:33;;;;;;;1.60;1.50;;;7.20;99.90;;;;;;5036965;28;20336;-70
2022/11/11 07:17:59;;;;;;;0.38;0.38;;;7.30;99.90;;;;;;5037153;28;20522;-69
2022/11/11 07:20:24;;;;;;;0.30;0.30;;;7.40;99.90;;;;;;5036363;28;20201;-67
2022/11/11 07:22:50;;;;;;;0.30;0.30;;;7.50;99.90;;;;;;5036367;28;20411;-69
2022/11/11 07:25:16;;;;;;;0.30;0.30;;;7.70;99.90;;;;;;5036722;28;20178;-68
2022/11/11 07:27:42;;;;;;;0.70;0.70;;;7.70;99.90;;;;;;5036720;28;20177;-69
2022/11/11 07:30:09;;;;;;;0.30;0.30;;;7.80;99.90;;;;;;5036599;28;20186;-70
2022/11/11 07:32:35;;;;;;;0.50;0.50;;;7.90;99.90;;;;;;5036904;28;20202;-71
2022/11/11 07:35:02;;;;;;;0.95;0.93;;;8.20;99.90;;;;;;5036029;28;20186;-72
2022/11/11 07:37:29;;;;;;;0.57;0.57;;;8.70;99.90;;;;;;5036156;28;20171;-71
2022/11/11 07:39:55;;;;;;;0.63;0.63;;;9.30;99.90;;;;;;5036331;28;20590;-71
2022/11/11 07:42:21;;;;;;;1.23;1.20;;;9.90;99.90;;;;;;5036475;28;20175;-71
2022/11/11 07:44:46;;;;;;;0.90;0.60;;;10.80;99.90;;;;;;5036415;28;20225;-70
2022/11/11 07:47:12;;;;;;;1.17;1.17;;;11.70;99.90;;;;;;5036083;28;20541;-71
2022/11/11 07:49:38;;;;;;;0.70;0.70;;;12.50;99.90;;;;;;5036165;28;20592;-70
2022/11/11 07:52:03;;;;;;;0.50;0.50;;;13.00;99.90;;;;;;5034623;28;20178;-69
2022/11/11 07:54:29;;;;;;;0.30;0.30;;;13.20;99.90;;;;;;5036047;28;20182;-71
2022/11/11 07:56:55;;;;;;;0.40;0.40;;;13.30;99.90;;;;;;5036254;28;20198;-72
2022/11/11 07:59:20;;;;;;;1.00;1.00;;;13.60;99.90;;;;;;5035746;28;20666;-71
2022/11/11 08:01:46;;;;;;;0.60;0.60;;;14.00;99.90;;;;;;5036098;28;20185;-71
2022/11/11 08:04:11;;;;;;;2.30;2.10;;;14.40;99.90;;;;;;5035565;28;20178;-71
2022/11/11 08:06:37;;;;;;;0.70;0.70;;;14.70;99.90;;;;;;5036022;28;20608;-70
2022/11/11 08:09:03;;;;;;;0.90;0.90;;;15.00;99.90;;;;;;5035800;28;20678;-69
2022/11/11 08:14:13;;;;;;;0.53;0.53;;;14.90;97.70;;;;;;5035518;28;20190;-71
2022/11/11 08:16:38;;;;;;;0.40;0.40;;;14.60;96.40;;;;;;5035613;28;20413;-69
2022/11/11 08:19:04;;;;;;;0.63;0.63;;;14.40;95.80;;;;;;5035512;28;20281;-68
2022/11/11 08:21:30;;;;;;;0.60;0.60;;;14.20;94.20;;;;;;5035666;28;20220;-69
2022/11/11 08:23:55;;;;;;;0.47;0.47;;;14.10;93.40;;;;;;5035591;28;20569;-69
2022/11/11 08:26:22;;;;;;;0.50;0.50;;;14.20;95.50;;;;;;5035850;28;20169;-69
2022/11/11 08:28:48;;;;;;;0.40;0.40;;;14.30;95.60;;;;;;5035801;28;20201;-69
2022/11/11 08:31:13;;;;;;;1.10;1.00;;;14.50;95.60;;;;;;5035166;28;20413;-69
2022/11/11 08:33:39;;;;;;;1.07;0.90;;;14.60;95.90;;;;;;5035000;28;20292;-70
2022/11/11 08:36:06;;;;;;;2.20;0.77;;;14.70;94.30;;;;;;5035529;28;20616;-71
2022/11/11 08:38:33;;;;;;;0.70;0.70;;;14.60;91.90;;;;;;5034759;28;20255;-69
2022/11/11 08:41:01;;;;;;;1.17;1.10;;;14.60;93.60;;;;;;5035537;28;20450;-71
2022/11/11 08:43:31;;;;;;;1.03;0.63;;;14.70;94.00;;;;;;5035113;28;20413;-69
2022/11/11 08:45:57;;;;;;;1.37;1.27;;;15.00;93.80;;;;;;5035129;28;20402;-71
2022/11/11 08:48:23;;;;;;;0.60;0.60;;;15.30;92.30;;;;;;5034989;28;20415;-72
2022/11/11 08:50:51;;;;;;;0.80;0.60;;;15.60;92.40;;;;;;5035195;28;20414;-70
2022/11/11 08:53:17;;;;;;;0.40;0.40;;;16.10;91.50;;;;;;5034819;28;20183;-71
2022/11/11 08:55:43;;;;;;;0.40;0.40;;;16.60;90.00;;;;;;5035108;28;20412;-73
2022/11/11 08:58:09;;;;;;;0.40;0.40;;;17.00;89.70;;;;;;5035275;28;20414;-73
2022/11/11 09:00:35;;;;;;;0.83;0.83;;;17.30;88.80;;;;;;5034713;28;20197;-72
2022/11/11 09:03:03;;;;;;;0.93;0.53;;;17.40;87.40;;;;;;5034100;28;20450;-71
2022/11/11 09:05:29;;;;;;;0.90;0.77;;;17.60;87.80;;;;;;5034879;28;20603;-71
2022/11/11 09:07:56;;;;;;;0.50;0.50;;;17.90;86.60;;;;;;5034911;28;20893;-71
2022/11/11 09:10:21;;;;;;;0.77;0.77;;;18.00;85.10;;;;;;5034999;28;20429;-70
2022/11/11 09:12:47;;;;;;;0.60;0.53;;;18.10;83.90;;;;;;5034638;28;20410;-71
2022/11/11 09:15:12;;;;;;;0.40;0.40;;;18.40;83.10;;;;;;5034422;28;20180;-69
2022/11/11 09:17:38;;;;;;;1.27;0.70;;;18.80;82.50;;;;;;5034508;28;20186;-69
2022/11/11 09:20:04;;;;;;;0.73;0.40;;;19.30;80.90;;;;;;5034502;28;20286;-70
2022/11/11 09:22:30;;;;;;;0.47;0.47;;;19.50;78.20;;;;;;5034541;28;20174;-69
2022/11/11 09:24:56;;;;;;;0.50;0.50;;;19.80;79.00;;;;;;5034635;28;20904;-69
2022/11/11 09:27:22;;;;;;;0.83;0.83;;;20.00;77.70;;;;;;5034292;28;20256;-71
2022/11/11 09:29:47;;;;;;;0.30;0.30;;;20.30;76.50;;;;;;5034333;28;20288;-71
2022/11/11 09:32:13;;;;;;;1.20;0.63;;;20.60;75.70;;;;;;5034380;28;20504;-68
2022/11/11 09:34:38;;;;;;;0.70;0.70;;;20.90;73.40;;;;;;5034206;28;20179;-70
2022/11/11 09:37:04;;;;;;;0.40;0.40;;;21.00;73.60;;;;;;5034431;28;20179;-67
2022/11/11 09:39:30;;;;;;;0.67;0.67;;;21.00;71.50;;;;;;5033824;28;20211;-69
2022/11/11 09:42:22;;;;;;;0.90;0.90;;;21.00;71.80;;;;;;5034136;28;20171;-67
2022/11/11 09:45:17;;;;;;;2.00;1.47;;;20.90;71.00;;;;;;5033992;28;20163;-70
2022/11/11 09:48:22;;;;;;;0.80;0.60;;;20.60;71.10;;;;;;4963574;28;20424;-71
2022/11/11 09:50:53;;;;;;;0.40;0.40;;;20.20;72.00;;;;;;5034241;28;20825;-70
2022/11/11 09:53:34;;;;;;;0.30;0.30;;;19.90;72.50;;;;;;5033784;28;20390;-67
2022/11/11 09:56:08;;;;;;;1.00;0.50;;;19.50;72.70;;;;;;5034352;28;20417;-72
2022/11/11 09:58:43;;;;;;;0.37;0.30;;;19.10;75.20;;;;;;5034099;28;20810;-69
2022/11/11 10:01:21;;;;;;;0.30;0.30;;;18.90;75.80;;;;;;5033987;28;20475;-70
2022/11/11 10:03:58;;;;;;;0.40;0.40;;;18.70;77.00;;;;;;5033836;28;20488;-68
2022/11/11 10:06:29;;;;;;;0.43;0.43;;;18.30;77.20;;;;;;5016076;28;20941;-68
2022/11/11 10:09:01;;;;;;;0.40;0.40;;;18.20;78.50;;;;;;5034162;28;20526;-67
2022/11/11 10:11:57;;;;;;;0.40;0.40;;;17.90;78.60;;;;;;5033568;28;20413;-70
2022/11/11 10:14:27;;;;;;;0.73;0.73;;;17.50;80.00;;;;;;5033026;28;20407;-70
2022/11/11 10:17:16;;;;;;;0.60;0.60;;;16.90;81.10;;;;;;5033341;28;20510;-68
2022/11/11 10:19:59;;;;;;;0.60;0.60;;;16.70;82.60;;;;;;5033705;28;20461;-67
2022/11/11 10:22:32;;;;;;;0.50;0.50;;;16.50;82.90;;;;;;5033467;28;20412;-68
2022/11/11 10:25:19;;;;;;;0.60;0.60;;;16.40;83.70;;;;;;5033163;28;20462;-68
2022/11/11 10:27:48;;;;;;;0.40;0.40;;;16.10;84.10;;;;;;5033353;28;20492;-67
2022/11/11 10:30:29;;;;;;;1.03;1.03;;;15.90;84.90;;;;;;5033385;28;20921;-67
2022/11/11 10:33:03;;;;;;;0.40;0.40;;;15.90;85.40;;;;;;5033577;28;20416;-67
2022/11/11 10:35:31;;;;;;;0.50;0.50;;;16.00;85.30;;;;;;5033795;28;20764;-68
2022/11/11 10:38:09;;;;;;;0.73;0.50;;;16.00;85.20;;;;;;5033569;28;20431;-69
2022/11/11 10:40:52;;;;;;;0.87;0.87;;;16.00;85.60;;;;;;5015379;28;20461;-72
2022/11/11 10:43:26;;;;;;;0.50;0.50;;;16.10;86.10;;;;;;5033279;28;20402;-69
2022/11/11 10:46:31;;;;;;;0.60;0.40;;;16.20;85.90;;;;;;5033743;28;20408;-72
2022/11/11 10:49:01;;;;;;;1.17;0.60;;;16.10;85.70;;;;;;4953293;29;20487;-71
2022/11/11 10:51:31;;;;;;;0.50;0.50;;;15.80;85.90;;;;;;4953282;29;20851;-69
2022/11/11 10:54:20;;;;;;;0.50;0.50;;;15.50;87.40;;;;;;4994776;28;20438;-71
2022/11/11 10:56:54;;;;;;;0.80;0.80;;;15.50;88.30;;;;;;5033645;28;20764;-71
2022/11/11 10:59:30;;;;;;;0.83;0.60;;;15.40;88.60;;;;;;5032628;28;20459;-72
2022/11/11 11:02:08;;;;;;;0.50;0.50;;;15.30;89.50;;;;;;5033082;28;20401;-69
2022/11/11 11:04:44;;;;;;;2.30;2.20;;;15.30;89.80;;;;;;5032713;28;20416;-70
2022/11/11 11:07:18;;;;;;;0.40;0.40;;;15.30;90.30;;;;;;5032956;28;20420;-70
2022/11/11 11:09:54;;;;;;;0.70;0.70;;;15.40;90.40;;;;;;5033011;28;20435;-69
2022/11/11 11:12:38;;;;;;;0.40;0.40;;;15.60;90.10;;;;;;5033352;28;20440;-70
2022/11/11 11:15:10;;;;;;;0.60;0.50;;;15.60;88.90;;;;;;5033220;28;20449;-70
2022/11/11 11:17:48;;;;;;;0.53;0.50;;;15.50;89.40;;;;;;5033083;28;20783;-71
2022/11/11 11:20:19;;;;;;;0.70;0.70;;;15.40;89.60;;;;;;5031965;28;20578;-68
2022/11/11 11:22:56;;;;;;;0.40;0.40;;;15.40;90.30;;;;;;5032252;28;20408;-70
2022/11/11 11:25:22;;;;;;;0.67;0.50;;;15.60;90.10;;;;;;5033361;28;20771;-69
2022/11/11 11:27:50;;;;;;;0.50;0.50;;;15.80;90.10;;;;;;5035779;28;20459;-71
2022/11/11 11:30:19;;;;;;;0.70;0.40;;;16.10;90.30;;;;;;5035734;28;20808;-68
2022/11/11 11:32:57;;;;;;;0.80;0.80;;;16.40;90.40;;;;;;5035962;28;20808;-72
2022/11/11 11:35:29;;;;;;;1.07;0.97;;;16.50;90.40;;;;;;5036570;28;20405;-71
2022/11/11 11:37:55;;;;;;;0.40;0.40;;;16.50;90.90;;;;;;5036198;28;20430;-69
2022/11/11 11:40:21;;;;;;;0.60;0.50;;;16.40;91.00;;;;;;5036611;28;20476;-70
2022/11/11 11:42:46;;;;;;;0.50;0.50;;;16.40;91.60;;;;;;5036597;28;20518;-71
2022/11/11 11:45:22;;;;;;;0.40;0.40;;;16.40;90.60;;;;;;5036172;28;20174;-70
2022/11/11 11:48:07;;;;;;;0.60;0.60;;;16.50;90.30;;;;;;5036122;28;20209;-71
2022/11/11 11:50:49;;;;;;;0.57;0.57;;;16.50;90.80;;;;;;5036022;28;20396;-70
2022/11/11 11:53:41;;;;;;;0.40;0.40;;;16.40;90.60;;;;;;5036408;28;20493;-75
2022/11/11 11:56:19;;;;;;;0.40;0.40;;;16.20;91.00;;;;;;5036144;28;20477;-70
2022/11/11 11:58:59;;;;;;;0.50;0.50;;;15.90;93.10;;;;;;5036112;28;20453;-72
2022/11/11 12:01:42;;;;;;;0.67;0.50;;;15.80;93.70;;;;;;5036460;28;20390;-68
2022/11/11 12:04:08;;;;;;;0.63;0.63;;;15.70;94.90;;;;;;5036164;28;20429;-71
2022/11/11 12:06:52;;;;;;;1.23;1.03;;;15.60;95.60;;;;;;5018210;28;20491;-68
2022/11/11 12:09:27;;;;;;;0.47;0.47;;;15.80;95.00;;;;;;5036096;28;20237;-69
2022/11/11 12:12:11;;;;;;;0.53;0.53;;;15.80;93.50;;;;;;5035511;28;20437;-69
2022/11/11 12:14:55;;;;;;;0.60;0.50;;;15.90;93.40;;;;;;5035513;28;20406;-70
2022/11/11 12:17:43;;;;;;;0.40;0.40;;;16.00;93.80;;;;;;5035631;28;20401;-71
2022/11/11 12:20:14;;;;;;;0.60;0.50;;;16.10;92.90;;;;;;5035573;28;20920;-70
2022/11/11 12:23:24;;;;;;;1.07;1.07;;;16.10;92.80;;;;;;5035326;28;20496;-69
2022/11/11 12:26:24;;;;;;;0.30;0.30;;;16.30;92.60;;;;;;5036136;28;20398;-69
2022/11/11 12:29:26;;;;;;;0.60;0.43;;;16.40;93.90;;;;;;5035685;28;20738;-71
2022/11/11 12:32:04;;;;;;;0.30;0.30;;;16.50;94.00;;;;;;5035583;28;20496;-67
2022/11/11 12:34:42;;;;;;;0.70;0.70;;;16.60;93.40;;;;;;5034985;28;20402;-70
2022/11/11 12:37:36;;;;;;;0.50;0.50;;;16.60;92.90;;;;;;5034623;28;20390;-70
2022/11/11 12:40:20;;;;;;;0.40;0.40;;;16.60;92.80;;;;;;5034924;28;20622;-71
2022/11/11 12:43:20;;;;;;;0.50;0.50;;;16.60;92.90;;;;;;5035116;28;20456;-69
2022/11/11 12:45:58;;;;;;;0.40;0.40;;;16.60;92.70;;;;;;5035267;28;20393;-70
2022/11/11 12:48:42;;;;;;;0.50;0.50;;;16.40;97.50;;;;;;5035042;28;20394;-70
2022/11/11 12:51:21;;;;;;;1.87;0.80;;;16.60;91.70;;;;;;5035552;28;20461;-72
2022/11/11 12:54:02;;;;;;;1.23;1.13;;;16.60;92.20;;;;;;5016929;28;20440;-70
2022/11/11 12:56:49;;;;;;;0.40;0.40;;;16.60;91.90;;;;;;5035384;28;20416;-73
2022/11/11 12:59:34;;;;;;;1.53;1.13;;;16.70;91.60;;;;;;5034858;28;20981;-71
2022/11/11 13:02:35;;;;;;;0.40;0.40;;;16.70;91.90;;;;;;5035222;28;20741;-72
2022/11/11 13:05:25;;;;;;;0.50;0.50;;;16.70;92.00;;;;;;4997450;28;20425;-72
2022/11/11 13:08:12;;;;;;;0.83;0.83;;;16.70;91.90;;;;;;5035137;28;20402;-71
2022/11/11 13:10:50;;;;;;;0.70;0.70;;;16.70;91.90;;;;;;5034422;28;20444;-70
2022/11/11 13:13:57;;;;;;;0.50;0.50;;;16.70;91.90;;;;;;5034364;28;20463;-71
2022/11/11 13:16:24;;;;;;;0.50;0.50;;;16.60;92.60;;;;;;4954792;29;20433;-69
2022/11/11 13:19:16;;;;;;;0.40;0.40;;;16.60;92.30;;;;;;5017713;28;20438;-69
2022/11/11 13:22:05;;;;;;;0.50;0.50;;;16.50;92.40;;;;;;5034819;28;20397;-72
2022/11/11 13:24:31;;;;;;;0.30;0.30;;;16.40;92.60;;;;;;5034096;28;20402;-69
2022/11/11 13:27:05;;;;;;;0.40;0.40;;;16.40;92.60;;;;;;5034821;28;20878;-70
2022/11/11 13:29:42;;;;;;;0.40;0.40;;;16.30;93.00;;;;;;5034581;28;20447;-69
2022/11/11 13:32:13;;;;;;;0.60;0.60;;;16.20;93.40;;;;;;5034533;28;20431;-69
2022/11/11 13:34:40;;;;;;;1.03;0.50;;;16.10;93.00;;;;;;5034005;28;20448;-70
2022/11/11 13:37:16;;;;;;;1.60;0.60;;;15.90;92.80;;;;;;5034674;28;20497;-71
2022/11/11 13:39:50;;;;;;;0.40;0.40;;;15.80;91.90;;;;;;5034004;28;20475;-73
2022/11/11 13:42:25;;;;;;;0.60;0.60;;;15.60;91.80;;;;;;5034423;28;20418;-70
2022/11/11 13:44:58;;;;;;;0.60;0.60;;;15.50;92.30;;;;;;5033791;28;20406;-70
2022/11/11 13:47:32;;;;;;;0.40;0.40;;;15.40;92.70;;;;;;5034489;28;20409;-69
2022/11/11 13:50:25;;;;;;;0.40;0.40;;;15.30;93.10;;;;;;5033647;28;20464;-71
2022/11/11 13:52:56;;;;;;;0.30;0.30;;;15.10;93.10;;;;;;5034003;28;20448;-71
2022/11/11 13:55:35;;;;;;;0.50;0.50;;;15.00;93.20;;;;;;5034134;28;20398;-71
2022/11/11 13:58:01;;;;;;;0.50;0.50;;;14.80;93.70;;;;;;5033965;28;20550;-70
2022/11/11 14:00:33;;;;;;;0.33;0.33;;;14.70;94.00;;;;;;5033778;28;20550;-71
2022/11/11 14:03:18;;;;;;;0.40;0.40;;;14.60;94.00;;;;;;5033692;28;20418;-72
2022/11/11 14:05:45;;;;;;;0.50;0.50;;;14.50;94.60;;;;;;5033338;28;20495;-70
2022/11/11 14:08:46;;;;;;;0.30;0.30;;;14.10;99.90;;;;;;4999702;28;20421;-71
2022/11/11 14:11:23;;;;;;;0.30;0.30;;;14.30;94.70;;;;;;5033556;28;20416;-70
2022/11/11 14:13:50;;;;;;;0.50;0.50;;;14.20;95.20;;;;;;5033483;28;20437;-70
2022/11/11 14:16:34;;;;;;;0.40;0.40;;;14.10;95.10;;;;;;5033920;28;20406;-71
2022/11/11 14:19:32;;;;;;;0.50;0.50;;;14.00;96.00;;;;;;5015892;28;20467;-69
2022/11/11 14:22:00;;;;;;;0.60;0.50;;;13.90;95.50;;;;;;5033226;28;20422;-68
2022/11/11 14:24:44;;;;;;;0.40;0.40;;;13.90;95.10;;;;;;5033682;28;20441;-68
2022/11/11 14:27:10;;;;;;;0.40;0.40;;;13.90;95.20;;;;;;5033912;28;20412;-70